Flight Track Log - Related Links

Times and Time Zones

All times are in EDT time to prevent confusion due to time zone crossing. See the N121JM flight status page for this flight to view local times or setup timezone preferences in your user account.


Time Position Orientation Groundspeed Altitude Reporting Facility
EDT Latitude Longitude Course Direction KTS MPH feet Rate Location/Type
Thu 03:06:08 PM 40.7500 -74.4333 150° Southeast 198 228 2,800  Level New York TRACON
Thu 03:07:08 PM 40.6833 -74.3833 150° Southeast 235 270 5,100 2,800 Climbing New York TRACON
Thu 03:08:08 PM 40.6333 -74.3333 143° Southeast 264 304 8,400 3,276 Climbing New York TRACON
Thu 03:09:40 PM 40.5222 -74.3419 183° South 252 290 13,400 2,645 Climbing New York Center
Thu 03:10:40 PM 40.4422 -74.2944 156° South 288 331 15,100 1,736 Climbing New York Center
Thu 03:11:41 PM 40.3528 -74.2217 148° Southeast 357 411 16,900 1,742 Climbing New York Center
Thu 03:13:15 PM 40.1972 -74.2200 180° South 349 402 19,600 1,909 Climbing Washington Center
Thu 03:14:15 PM 40.0994 -74.2300 184° South 354 407 21,800 2,100 Climbing Washington Center
Thu 03:15:15 PM 40.0039 -74.2561 192° South 354 407 23,800 1,933 Climbing Washington Center
Thu 03:17:15 PM 39.8492 -74.4022 216° Southwest 343 395 27,600 1,667 Climbing Washington Center
Thu 03:18:15 PM 39.7625 -74.4739 212° Southwest 356 410 28,800 1,350 Climbing Washington Center
Thu 03:19:15 PM 39.6733 -74.5400 210° Southwest 368 423 30,300 1,664 Climbing Washington Center
Thu 03:20:14 PM 39.5803 -74.6114 211° Southwest 381 438 32,100 1,800 Climbing Washington Center
Thu 03:21:15 PM 39.4911 -74.6744 209° Southwest 386 444 33,900 942 Climbing Washington Center
Thu 03:22:15 PM 39.4000 -74.7456 211° Southwest 381 438 34,000 400 Climbing Washington Center
Thu 03:23:15 PM 39.3089 -74.8111 209° Southwest 386 444 34,700 850 Climbing Washington Center
Thu 03:24:15 PM 39.2194 -74.8764 209° Southwest 380 437 35,700 1,100 Climbing Washington Center
Thu 03:25:15 PM 39.1283 -74.9442 210° Southwest 380 437 36,900 1,200 Climbing Washington Center
Thu 03:26:15 PM 39.0369 -75.0092 209° Southwest 380 437 38,100 1,200 Climbing Washington Center
Thu 03:27:15 PM 38.9456 -75.0819 212° Southwest 380 437 39,300 1,150 Climbing Washington Center
Thu 03:28:15 PM 38.8542 -75.1492 210° Southwest 380 437 40,400 1,050 Climbing Washington Center
Thu 03:29:15 PM 38.7647 -75.2108 208° Southwest 380 437 41,400 900 Climbing Washington Center
Thu 03:30:15 PM 38.6753 -75.2806 211° Southwest 380 437 42,200 700 Climbing Washington Center
Thu 03:31:15 PM 38.5836 -75.3367 206° Southwest 380 437 42,800 400 Climbing Washington Center
Thu 03:32:15 PM 38.4942 -75.4061 211° Southwest 380 437 43,000 100 Climbing Washington Center
Thu 03:33:15 PM 38.4025 -75.4725 210° Southwest 380 437 43,000  Level Washington Center
Thu 03:34:15 PM 38.3233 -75.5281 209° Southwest 387 445 43,000  Level Washington Center
Thu 03:35:15 PM 38.2147 -75.5917 205° Southwest 393 452 43,000  Level Washington Center
Thu 03:36:15 PM 38.1106 -75.6550 206° Southwest 393 452 43,000  Level Washington Center
Thu 03:37:15 PM 38.0189 -75.7183 209° Southwest 383 441 43,000  Level Washington Center
Thu 03:38:15 PM 37.9247 -75.7761 206° Southwest 377 434 43,000  Level Washington Center
Thu 03:39:15 PM 37.8225 -75.8336 204° Southwest 389 448 43,000  Level Washington Center
Thu 03:40:15 PM 37.7264 -75.9017 209° Southwest 394 453 43,000  Level Washington Center
Thu 03:41:15 PM 37.6219 -75.9536 202° Southwest 400 460 43,000  Level Washington Center
Thu 03:42:15 PM 37.5133 -76.0003 199° South 406 467 43,000  Level Washington Center
Thu 03:43:15 PM 37.4047 -76.0467 199° South 411 473 43,000  Level Washington Center
Thu 03:44:15 PM 37.2961 -76.0906 198° South 411 473 43,000  Level Washington Center
Thu 03:45:15 PM 37.1894 -76.1394 200° South 416 479 43,000  Level Washington Center
Thu 03:46:15 PM 37.0747 -76.1803 196° South 416 479 43,000  Level Washington Center
Thu 03:47:15 PM 36.9658 -76.2236 198° South 421 484 43,000  Level Washington Center
Thu 03:48:15 PM 36.8572 -76.2694 199° South 421 484 43,000  Level Washington Center
Thu 03:49:15 PM 36.7506 -76.3178 200° South 421 484 43,000  Level Washington Center
Thu 03:50:15 PM 36.6522 -76.3633 200° South 421 484 43,000  Level Washington Center
Thu 03:51:15 PM 36.5433 -76.4064 198° South 421 484 43,000  Level Washington Center
Thu 03:52:15 PM 36.4306 -76.4542 199° South 421 484 43,000  Level Washington Center
Thu 03:53:15 PM 36.3217 -76.4969 198° South 427 491 43,000  Level Washington Center
Thu 03:54:15 PM 36.2064 -76.5444 198° South 427 491 43,000  Level Washington Center
Thu 03:55:15 PM 36.0956 -76.5919 199° South 427 491 43,000  Level Washington Center
Thu 03:56:14 PM 35.9844 -76.6367 198° South 427 491 43,000  Level Washington Center
Thu 03:57:15 PM 35.8736 -76.6814 198° South 427 491 43,000  Level Washington Center
Thu 03:58:15 PM 35.7583 -76.7258 197° South 427 491 43,000  Level Washington Center
Thu 03:59:15 PM 35.6494 -76.7731 199° South 427 491 43,000  Level Washington Center
Thu 04:00:15 PM 35.5406 -76.8172 198° South 427 491 43,000  Level Washington Center
Thu 04:01:15 PM 35.4275 -76.8614 198° South 427 491 43,000  Level Washington Center
Thu 04:02:15 PM 35.3122 -76.9081 198° South 427 491 43,000  Level Washington Center
Thu 04:03:15 PM 35.1969 -76.9544 198° South 432 497 43,000  Level Washington Center
Thu 04:04:15 PM 35.0731 -77.0056 199° South 432 497 43,000  Level Washington Center
Thu 04:05:15 PM 34.9600 -77.0544 200° South 427 491 43,000  Level Washington Center
Thu 04:06:15 PM 34.8444 -77.1003 198° South 427 491 43,000  Level Washington Center
Thu 04:07:15 PM 34.7272 -77.1461 198° South 438 504 43,000  Level Washington Center
Thu 04:08:15 PM 34.6097 -77.1919 198° South 443 510 43,000  Level Washington Center
Thu 04:09:15 PM 34.4944 -77.2375 198° South 443 510 43,000  Level Washington Center
Thu 04:10:15 PM 34.3789 -77.2856 199° South 443 510 43,000  Level Washington Center
Thu 04:11:15 PM 34.2614 -77.3283 197° South 443 510 43,000  Level Washington Center
Thu 04:12:15 PM 34.1461 -77.3736 198° South 443 510 43,000  Level Washington Center
Thu 04:13:27 PM 34.0039 -77.4294 198° South 442 509 43,000  Level Jacksonville Center
Thu 04:14:27 PM 33.8869 -77.4717 197° South 437 503 43,000  Level Jacksonville Center
Thu 04:15:27 PM 33.7719 -77.5189 199° South 432 497 43,000  Level Jacksonville Center
Thu 04:16:27 PM 33.6653 -77.5603 198° South 439 505 43,000  Level Jacksonville Center
Thu 04:17:27 PM 33.5381 -77.6103 198° South 439 505 43,000  Level Jacksonville Center
Thu 04:18:27 PM 33.4189 -77.6547 197° South 439 505 43,000  Level Jacksonville Center
Thu 04:19:27 PM 33.2978 -77.7017 198° South 450 518 43,000  Level Jacksonville Center
Thu 04:20:27 PM 33.1806 -77.7456 197° South 450 518 43,000  Level Jacksonville Center
Thu 04:21:27 PM 33.0592 -77.7897 197° South 455 524 43,000  Level Jacksonville Center
Thu 04:22:27 PM 32.9400 -77.8361 198° South 455 524 43,000  Level Jacksonville Center
Thu 04:23:27 PM 32.8208 -77.8822 198° South 455 524 43,000  Level Jacksonville Center
Thu 04:24:27 PM 32.6975 -77.9261 197° South 455 524 43,000  Level Jacksonville Center
Thu 04:25:27 PM 32.5761 -77.9747 199° South 455 524 43,000  Level Jacksonville Center
Thu 04:26:27 PM 32.4528 -78.0208 198° South 455 524 43,000  Level Jacksonville Center
Thu 04:27:27 PM 32.3311 -78.0642 197° South 455 524 43,000  Level Jacksonville Center
Thu 04:28:27 PM 32.2119 -78.1122 199° South 455 524 43,000  Level Jacksonville Center
Thu 04:29:27 PM 32.0906 -78.1578 198° South 455 524 43,000  Level Jacksonville Center
Thu 04:30:27 PM 31.9711 -78.1981 196° South 455 524 43,000  Level Jacksonville Center
Thu 04:31:27 PM 31.8494 -78.2411 197° South 455 524 43,000  Level Jacksonville Center
Thu 04:32:27 PM 31.7303 -78.2958 201° Southwest 461 531 43,000  Level Jacksonville Center
Thu 04:33:27 PM 31.6086 -78.3383 197° South 461 531 43,000  Level Jacksonville Center
Thu 04:34:27 PM 31.4853 -78.3858 198° South 461 531 43,000  Level Jacksonville Center
Thu 04:36:27 PM 31.2419 -78.4753 197° South 456 525 43,000  Level Jacksonville Center
Thu 04:37:27 PM 31.1225 -78.5197 198° South 456 525 43,000  Level Jacksonville Center
Thu 04:38:27 PM 31.0153 -78.5586 197° South 449 517 43,000  Level Jacksonville Center
Thu 04:39:27 PM 30.8958 -78.6028 198° South 449 517 43,000  Level Jacksonville Center
Thu 04:40:27 PM 30.7739 -78.6472 197° South 455 524 43,000  Level Jacksonville Center
Thu 04:42:27 PM 30.5369 -78.7314 197° South 444 511 43,000  Level Miami Center
Thu 04:43:27 PM 30.4156 -78.7675 194° South 444 511 43,000  Level Miami Center
Thu 04:44:27 PM 30.2881 -78.7967 191° South 456 525 43,000  Level Miami Center
Thu 04:45:27 PM 30.1625 -78.8278 192° South 468 539 43,000  Level Miami Center
Thu 04:46:27 PM 30.0350 -78.8567 191° South 468 539 43,000  Level Miami Center
Thu 04:47:27 PM 29.9136 -78.8928 194° South 463 533 43,000  Level Miami Center
Thu 04:48:27 PM 29.7881 -78.9214 191° South 463 533 43,000  Level Miami Center
Thu 04:49:27 PM 29.6603 -78.9500 191° South 473 544 43,000 -733 Level Miami Center
Thu 04:51:27 PM 29.4008 -79.0094 191° South 474 545 40,800 -1,233 Descending Miami Center
Thu 04:52:27 PM 29.2692 -79.0378 191° South 484 557 39,300 -1,500 Descending Miami Center
Thu 04:53:27 PM 29.1350 -79.0683 191° South 484 557 37,800 -1,500 Descending Miami Center
Thu 04:54:27 PM 28.9947 -79.1011 192° South 484 557 36,300 -1,500 Descending Miami Center
Thu 04:55:27 PM 28.8628 -79.1317 191° South 489 563 34,800 -1,500 Descending Miami Center
Thu 04:56:27 PM 28.7289 -79.1619 191° South 489 563 33,300 -1,500 Descending Miami Center
Thu 04:57:27 PM 28.5969 -79.1900 191° South 488 562 31,800 -1,500 Descending Miami Center
Thu 04:58:27 PM 28.4608 -79.2203 191° South 488 562 30,300 -1,500 Descending Miami Center
Thu 04:59:27 PM 28.3308 -79.2483 191° South 488 562 28,800 -1,400 Descending Miami Center
Thu 05:01:00 PM 28.1590 -79.2760 194° South  Level FlightAware Approximate
Thu 05:01:27 PM 28.0772 -79.3064 194° South 468 539 26,100  Level Miami Center
Thu 05:02:27 PM 27.9578 -79.3319 191° South 463 533 25,900 -1,050 Descending Miami Center
Thu 05:03:27 PM 27.8464 -79.3861 203° Southwest 451 519 24,000 -2,050 Descending Miami Center
Thu 05:04:27 PM 27.7447 -79.4564 211° Southwest 439 505 21,800 -2,150 Descending Miami Center
Thu 05:05:27 PM 27.6581 -79.5178 212° Southwest 423 487 19,700 -2,050 Descending Miami Center
Thu 05:06:27 PM 27.5628 -79.5836 211° Southwest 410 472 17,700 -2,350 Descending Miami Center
Thu 05:07:27 PM 27.4592 -79.6561 212° Southwest 403 464 15,000 -2,450 Descending Miami Center
Thu 05:08:27 PM 27.3725 -79.7169 212° Southwest 391 450 12,800 -2,150 Descending Miami Center
Thu 05:09:27 PM 27.2878 -79.7758 212° Southwest 380 437 10,700 -2,100 Descending Miami Center
Thu 05:10:27 PM 27.2114 -79.8300 212° Southwest 371 427 8,600 -1,350 Descending Miami Center
Thu 05:11:27 PM 27.1183 -79.8881 209° Southwest 357 411 8,000 -300 Descending Miami Center
Thu 05:12:27 PM 27.0400 -79.9350 208° Southwest 344 396 8,000 -450 Level Miami Center
Thu 05:13:27 PM 26.9703 -79.9775 209° Southwest 305 351 7,100 -1,200 Descending Miami Center
Thu 05:14:27 PM 26.9497 -80.0517 253° West 262 302 5,600 -1,400 Descending Miami Center
Thu 05:15:27 PM 26.9150 -80.1181 240° Southwest 262 302 4,300 -800 Descending Miami Center
Thu 05:16:27 PM 26.8500 -80.1325 191° South 217 250 4,000 -150 Descending Miami Center
Thu 05:17:27 PM 26.8236 -80.1856 241° Southwest 191 220 4,000 -500 Level Miami Center
Thu 05:18:27 PM 26.7750 -80.2167 210° Southwest 191 220 3,000 -1,000 Descending Miami Center
Thu 05:20:00 PM 26.6832 -80.0956 250° West  Level Estimated
Thu 05:27:00 PM 26.6832 -80.0956 110° East  Level Estimated
Thu 05:28:00 PM 26.6832 -80.0956 110° East  Level Estimated
Thu 05:29:00 PM 26.6832 -80.0956 110° East  Level Estimated
Thu 05:30:00 PM 26.6832 -80.0956 110° East  Level Estimated

Login

Don't have an account? Register now (free) for customized features, flight alerts, and more!